createdAt,value
2023-02-18T02:43:57.793Z,35.79
2023-02-18T02:44:57.826Z,38.33
2023-02-18T02:45:57.932Z,36.11
2023-02-18T02:46:57.874Z,37.13
2023-02-18T02:47:57.916Z,38.62
2023-02-18T02:48:57.944Z,34.41
2023-02-18T02:49:57.977Z,35.25
2023-02-18T02:50:58.012Z,38.45
2023-02-18T02:51:58.050Z,38.70
2023-02-18T02:52:58.107Z,38.37
2023-02-18T02:53:58.105Z,33.97
2023-02-18T02:54:58.185Z,38.85
2023-02-18T02:55:58.175Z,34.47
2023-02-18T02:56:58.206Z,37.40
2023-02-18T02:57:58.235Z,34.74
2023-02-18T02:58:58.258Z,40.04
2023-02-18T02:59:58.344Z,34.78
2023-02-18T03:00:58.319Z,37.25
2023-02-18T03:01:58.877Z,35.86
2023-02-18T03:02:58.448Z,35.68
2023-02-18T03:03:58.386Z,32.81
2023-02-18T03:04:58.485Z,36.89
2023-02-18T03:05:58.435Z,32.98
2023-02-18T03:06:58.457Z,35.83
2023-02-18T03:07:58.486Z,38.23
2023-02-18T03:08:58.527Z,34.23
2023-02-18T03:09:58.561Z,32.32
2023-02-18T03:10:58.627Z,38.03
2023-02-18T03:11:58.694Z,37.64
2023-02-18T03:12:58.735Z,35.34
2023-02-18T03:13:58.792Z,36.92
2023-02-18T03:14:58.815Z,36.43
2023-02-18T03:15:58.898Z,36.08
2023-02-18T03:16:58.959Z,35.66
2023-02-18T03:17:59.024Z,36.76
2023-02-18T03:18:59.072Z,35.34
2023-02-18T03:19:59.113Z,37.64
2023-02-18T03:20:59.890Z,39.07
2023-02-18T03:21:59.222Z,37.50
2023-02-18T03:22:59.327Z,35.75
2023-02-18T03:23:59.315Z,37.37
2023-02-18T03:24:59.363Z,35.45
2023-02-18T03:25:59.415Z,32.79
2023-02-18T03:26:59.487Z,36.03
2023-02-18T03:27:59.546Z,31.22
2023-02-18T03:28:59.612Z,35.05
2023-02-18T03:29:59.737Z,33.39
2023-02-18T03:31:00.416Z,32.83
2023-02-18T03:31:59.914Z,29.69
2023-02-18T03:32:59.935Z,33.67
2023-02-18T03:34:00.020Z,31.63
2023-02-18T03:35:00.117Z,32.48
2023-02-18T03:36:00.187Z,34.45
2023-02-18T03:37:00.282Z,32.47
2023-02-18T03:38:00.366Z,32.79
2023-02-18T03:39:00.453Z,32.88
2023-02-18T03:40:00.561Z,32.68
2023-02-18T03:41:00.633Z,32.98
2023-02-18T03:42:00.703Z,34.19
2023-02-18T03:43:00.790Z,33.66
2023-02-18T03:44:00.905Z,35.31
2023-02-18T03:45:01.204Z,33.83
2023-02-18T03:46:01.068Z,31.07
2023-02-18T03:47:01.096Z,33.52
2023-02-18T03:48:01.175Z,35.17
2023-02-18T03:49:01.251Z,33.30
2023-02-18T03:50:01.325Z,32.54
2023-02-18T03:51:01.402Z,32.43
2023-02-18T03:52:01.472Z,33.81
2023-02-18T03:53:01.542Z,33.77
2023-02-18T03:54:01.613Z,31.57
2023-02-18T03:55:01.683Z,33.68
2023-02-18T03:56:01.800Z,33.40
2023-02-18T03:57:01.806Z,28.07
2023-02-18T03:58:01.875Z,32.00
2023-02-18T03:59:01.942Z,34.17
2023-02-18T04:00:02.017Z,31.67
2023-02-18T04:01:02.066Z,30.47
2023-02-18T04:02:02.131Z,32.70
2023-02-18T04:03:02.181Z,31.48
2023-02-18T04:04:02.253Z,31.03
2023-02-18T04:05:02.312Z,31.94
2023-02-18T04:06:02.376Z,29.89
2023-02-18T04:07:02.439Z,30.64
2023-02-18T04:08:02.499Z,28.91
2023-02-18T04:09:02.572Z,30.91
2023-02-18T04:10:02.675Z,29.55
2023-02-18T04:11:02.679Z,30.42
2023-02-18T04:12:02.730Z,31.28
2023-02-18T04:13:02.798Z,29.48
2023-02-18T04:14:02.863Z,32.11
2023-02-18T04:15:02.911Z,30.22
2023-02-18T04:16:02.973Z,31.89
2023-02-18T04:17:03.023Z,30.70
2023-02-18T04:18:03.084Z,30.70
2023-02-18T05:37:07.839Z,28.75
2023-02-18T05:38:07.896Z,28.14
2023-02-18T05:39:07.957Z,29.64
2023-02-18T05:40:08.020Z,30.72
2023-02-18T05:41:08.076Z,28.70
2023-02-18T05:42:08.474Z,31.19
2023-02-18T05:43:08.195Z,31.23
2023-02-18T05:56:09.262Z,28.79
2023-02-18T08:48:17.728Z,30.76
2023-02-18T08:48:20.745Z,30.93
2023-02-18T08:49:17.850Z,31.26
2023-02-18T08:50:17.865Z,30.77
2023-02-18T08:51:17.881Z,30.70
2023-02-18T08:52:17.893Z,28.65
2023-02-18T08:53:17.903Z,30.06
2023-02-18T08:54:17.916Z,32.26
2023-02-18T08:55:17.935Z,30.42
2023-02-18T08:56:17.953Z,29.11
2023-02-18T08:57:18.495Z,28.01
2023-02-18T08:58:17.973Z,26.72
2023-02-18T08:59:17.996Z,30.36
2023-02-18T09:00:17.997Z,28.23
2023-02-18T09:01:18.028Z,30.71
2023-02-18T09:02:18.019Z,29.41
2023-02-18T09:03:18.045Z,28.21
2023-02-18T09:04:18.107Z,29.00
2023-02-18T09:05:18.061Z,28.86
2023-02-18T09:06:18.078Z,30.51
2023-02-18T09:07:18.081Z,28.48
2023-02-18T09:08:18.097Z,29.44
2023-02-18T09:09:18.111Z,28.84
2023-02-18T09:10:18.132Z,28.74
2023-02-18T09:11:18.146Z,28.96
2023-02-18T09:12:18.151Z,30.89
2023-02-18T09:13:18.158Z,31.35
2023-02-18T09:14:18.166Z,32.63
2023-02-18T09:15:18.166Z,31.52
2023-02-18T09:16:18.239Z,30.61
2023-02-18T09:17:18.182Z,30.83
2023-02-18T09:18:18.200Z,28.99
2023-02-18T09:19:18.212Z,30.44
2023-02-18T09:20:18.226Z,31.27
2023-02-18T09:21:18.235Z,31.04
2023-02-18T09:22:18.245Z,30.56
2023-02-18T09:23:18.249Z,27.73
2023-02-18T09:24:18.259Z,29.90
2023-02-18T09:25:18.344Z,34.33
2023-02-18T09:26:18.298Z,34.14
2023-02-18T09:27:18.291Z,28.88
2023-02-18T09:28:18.337Z,29.65
2023-02-18T09:29:18.317Z,29.69
2023-02-18T09:30:18.386Z,28.59
2023-02-18T09:31:18.458Z,30.94
2023-02-18T09:32:28.998Z,31.00
2023-02-18T09:33:19.378Z,31.16
2023-02-18T09:34:18.385Z,31.47
2023-02-18T09:35:18.395Z,31.72
2023-02-18T09:36:18.408Z,30.60
2023-02-18T09:37:18.410Z,33.77
2023-02-18T09:38:18.427Z,31.24
2023-02-18T09:39:18.438Z,31.93
2023-02-18T09:40:18.447Z,31.64
2023-02-18T09:41:18.474Z,31.51
2023-02-18T09:42:18.477Z,30.90
2023-02-18T09:43:19.013Z,29.79
2023-02-18T09:44:18.501Z,29.75
2023-02-18T09:45:19.509Z,35.75
2023-02-18T09:46:18.547Z,29.68
2023-02-18T09:47:18.543Z,32.49
2023-02-18T09:48:18.542Z,34.00
2023-02-18T09:49:18.570Z,32.66
2023-02-18T09:50:18.575Z,30.50
2023-02-18T09:51:18.588Z,30.75
2023-02-18T09:52:18.590Z,33.00
2023-02-18T09:53:18.597Z,31.18
2023-02-18T09:54:18.637Z,34.49
2023-02-18T09:55:18.614Z,33.07
2023-02-18T09:56:18.639Z,31.78
2023-02-18T09:57:18.632Z,34.56
2023-02-18T09:58:18.649Z,33.86
2023-02-18T09:59:18.660Z,31.28
2023-02-18T10:00:18.676Z,29.30
2023-02-18T10:01:18.708Z,34.11
2023-02-18T10:02:18.684Z,32.69
2023-02-18T10:03:18.701Z,32.10
2023-02-18T10:04:18.711Z,31.11
2023-02-18T10:05:18.726Z,32.87
2023-02-18T10:06:18.746Z,33.28
2023-02-18T10:07:18.751Z,34.38
2023-02-18T10:08:18.763Z,30.92
2023-02-18T10:09:18.768Z,35.58
2023-02-18T10:10:18.789Z,33.53
2023-02-18T10:11:18.787Z,31.12
2023-02-18T10:12:18.800Z,36.40
2023-02-18T10:13:18.825Z,33.11
2023-02-18T10:14:18.824Z,34.50
2023-02-18T10:15:18.827Z,31.00
2023-02-18T10:16:18.990Z,34.78
2023-02-18T10:17:18.858Z,33.06
2023-02-18T10:18:18.861Z,34.30
2023-02-18T10:19:18.900Z,39.08
2023-02-18T10:20:18.901Z,35.59
2023-02-18T10:21:18.922Z,35.01
2023-02-18T10:22:18.949Z,36.37
2023-02-18T10:23:18.954Z,36.95
2023-02-18T10:24:18.978Z,34.09
2023-02-18T10:25:19.003Z,36.28
2023-02-18T10:26:19.014Z,35.76
2023-02-18T10:27:19.044Z,36.96
2023-02-18T10:28:19.042Z,35.26
2023-02-18T10:29:21.552Z,35.61
2023-02-18T10:30:19.142Z,36.96
2023-02-18T10:31:19.166Z,34.28
2023-02-18T10:32:19.077Z,36.79
2023-02-18T10:33:19.078Z,36.84
2023-02-18T10:34:19.085Z,37.25
2023-02-18T10:35:19.109Z,39.57
2023-02-18T10:36:19.114Z,38.15
2023-02-18T10:37:19.112Z,34.90
2023-02-18T10:38:19.120Z,35.63
2023-02-18T10:39:19.137Z,34.02
2023-02-18T10:40:19.272Z,36.46
2023-02-18T10:41:19.133Z,35.22
2023-02-18T10:42:19.204Z,36.51
2023-02-18T10:43:19.146Z,35.30
2023-02-18T10:44:19.149Z,37.23
2023-02-18T10:45:19.156Z,37.42
2023-02-18T10:46:19.176Z,40.16
2023-02-18T10:47:19.155Z,37.53
2023-02-18T10:48:19.229Z,35.54
2023-02-18T10:49:19.170Z,35.52
2023-02-18T10:50:19.178Z,36.50
2023-02-18T10:51:19.186Z,36.83
2023-02-18T10:52:19.190Z,37.92
2023-02-18T10:53:19.187Z,35.67
2023-02-18T10:54:19.241Z,35.95
2023-02-18T10:55:19.261Z,37.00
2023-02-18T10:56:19.270Z,37.11
2023-02-18T10:57:19.262Z,35.33
2023-02-18T10:58:19.264Z,35.10
2023-02-18T10:59:19.267Z,36.28
2023-02-18T11:00:19.298Z,37.11
2023-02-18T11:01:19.352Z,38.82
2023-02-18T11:02:19.302Z,37.30
2023-02-18T11:03:19.334Z,34.45
2023-02-18T11:04:19.362Z,37.39
2023-02-18T11:05:19.330Z,35.98
2023-02-18T11:06:19.385Z,36.02
2023-02-18T11:07:19.342Z,35.75
2023-02-18T11:08:19.357Z,37.31
2023-02-18T11:09:19.364Z,36.64
2023-02-18T11:10:20.039Z,35.84
2023-02-18T11:11:19.383Z,35.32
2023-02-18T11:12:19.396Z,37.85
2023-02-18T11:13:19.389Z,38.35
2023-02-18T11:14:19.410Z,34.84
2023-02-18T11:15:20.042Z,36.68
2023-02-18T11:16:19.487Z,37.47
2023-02-18T11:17:19.438Z,35.45
2023-02-18T11:18:19.451Z,36.80
2023-02-18T11:19:19.467Z,37.11
2023-02-18T11:20:19.485Z,35.92
2023-02-18T11:21:21.403Z,37.56
2023-02-18T11:22:19.510Z,37.80
2023-02-18T11:23:19.536Z,35.81
2023-02-18T11:24:19.526Z,36.72
2023-02-18T11:25:19.519Z,35.92
2023-02-18T11:26:19.557Z,36.10
2023-02-18T11:27:19.546Z,35.98
2023-02-18T11:28:19.554Z,37.10
2023-02-18T11:29:19.577Z,34.95
2023-02-18T11:30:20.076Z,37.38
2023-02-18T11:31:19.769Z,35.49
2023-02-18T11:32:19.840Z,37.71
2023-02-18T11:33:19.818Z,38.37
2023-02-18T11:34:19.909Z,36.27
2023-02-18T11:35:19.938Z,36.69
2023-02-18T11:36:19.982Z,37.41
2023-02-18T11:37:20.059Z,37.32
2023-02-18T11:38:20.111Z,34.59
2023-02-18T11:39:20.179Z,37.02
2023-02-18T11:40:20.248Z,36.18
2023-02-18T11:41:20.334Z,36.92
2023-02-18T11:42:20.376Z,34.97
2023-02-18T11:43:20.438Z,35.27
2023-02-18T11:44:20.500Z,34.67
2023-02-18T11:45:20.570Z,35.40
2023-02-18T11:46:20.671Z,37.11
2023-02-18T11:47:20.710Z,35.84
2023-02-18T11:48:20.783Z,37.98
2023-02-18T11:49:20.849Z,37.14
2023-02-18T11:50:20.926Z,36.22
2023-02-18T11:51:21.005Z,35.97
2023-02-18T11:52:21.059Z,34.58
2023-02-18T11:53:21.144Z,35.68
2023-02-18T11:54:21.203Z,38.09
2023-02-18T11:55:21.279Z,36.28
2023-02-18T11:56:21.338Z,33.65
2023-02-18T11:57:21.413Z,35.48
2023-02-18T11:58:21.473Z,35.85
2023-02-18T11:59:21.542Z,35.39
2023-02-18T12:00:21.702Z,32.40
2023-02-18T12:01:22.560Z,34.79
2023-02-18T12:02:21.844Z,36.28
2023-02-18T12:03:21.852Z,34.26
2023-02-18T12:04:21.931Z,34.04
2023-02-18T12:05:22.071Z,31.58
2023-02-18T12:06:22.081Z,32.79
2023-02-18T12:07:22.148Z,36.95
2023-02-18T12:08:22.228Z,34.63
2023-02-18T12:09:22.315Z,34.66
2023-02-18T12:10:22.389Z,35.70
2023-02-18T12:11:22.458Z,35.93
2023-02-18T12:12:22.545Z,34.92
2023-02-18T12:13:22.625Z,36.34
2023-02-18T12:14:22.703Z,35.05
2023-02-18T12:15:22.771Z,35.82
2023-02-18T12:16:22.876Z,32.69
2023-02-18T12:17:22.923Z,33.21
2023-02-18T12:18:22.993Z,33.86
2023-02-18T12:19:23.073Z,34.19
2023-02-18T12:20:23.273Z,35.69
2023-02-18T12:21:23.219Z,34.35
2023-02-18T12:22:23.290Z,33.99
2023-02-18T12:23:23.359Z,37.28
2023-02-18T13:34:27.614Z,29.75
2023-02-18T13:35:27.768Z,28.72
2023-02-18T13:36:27.723Z,30.13
2023-02-18T13:37:28.602Z,30.53
2023-02-18T13:38:27.834Z,28.04
2023-02-18T13:39:27.871Z,29.20
2023-02-18T13:40:27.904Z,31.01
2023-02-18T13:41:27.933Z,32.43
2023-02-18T13:42:27.965Z,29.89
2023-02-18T13:43:28.075Z,29.04
2023-02-18T13:44:27.994Z,31.75
2023-02-18T13:45:28.024Z,31.02
2023-02-18T13:46:28.169Z,30.42
2023-02-18T13:47:28.072Z,30.65
2023-02-18T13:48:28.125Z,30.16
2023-02-18T13:49:28.111Z,29.98
2023-02-18T13:50:28.155Z,30.56
2023-02-18T13:51:28.166Z,27.99
2023-02-18T13:52:28.206Z,29.11
2023-02-18T13:53:28.253Z,29.05
2023-02-18T13:54:28.284Z,30.08
2023-02-18T13:55:28.306Z,30.31
2023-02-18T13:56:28.401Z,30.85
2023-02-18T13:57:28.331Z,29.39
2023-02-18T13:58:28.365Z,27.79
2023-02-18T13:59:28.374Z,30.64
2023-02-18T14:00:28.410Z,30.59
2023-02-18T14:01:28.424Z,28.26
2023-02-18T14:02:28.552Z,28.32
2023-02-18T14:03:28.484Z,30.29
2023-02-18T14:04:28.530Z,30.53
2023-02-18T14:05:28.546Z,30.92
2023-02-18T14:06:28.559Z,29.14
2023-02-18T14:07:28.582Z,28.66
2023-02-18T14:08:28.599Z,26.85
2023-02-18T14:09:28.620Z,29.28
2023-02-18T14:10:28.674Z,28.12
2023-02-18T14:11:28.726Z,27.91
2023-02-18T14:12:28.781Z,30.96
2023-02-18T14:13:28.846Z,27.88
2023-02-18T14:14:28.903Z,32.20
2023-02-18T14:15:28.981Z,31.14
2023-02-18T14:16:28.997Z,29.52
2023-02-18T14:17:29.053Z,27.54
2023-02-18T14:18:29.124Z,27.22
2023-02-18T14:19:29.164Z,29.31
2023-02-18T14:20:29.237Z,28.86
2023-02-18T14:21:29.272Z,26.30
2023-02-18T14:22:30.111Z,30.71
2023-02-18T14:23:29.389Z,30.88
2023-02-18T14:24:29.442Z,27.30
2023-02-18T14:25:29.498Z,30.47
2023-02-18T14:26:29.560Z,27.42
2023-02-18T14:27:29.619Z,28.98
2023-02-18T14:28:29.793Z,26.95
2023-02-18T14:29:30.141Z,27.11
2023-02-18T14:30:29.819Z,28.28
2023-02-18T14:31:30.899Z,28.03
2023-02-18T14:32:29.895Z,29.28
2023-02-18T14:33:29.951Z,28.57
2023-02-18T14:34:30.002Z,31.18
2023-02-18T14:35:30.057Z,32.82
2023-02-18T14:36:30.110Z,31.57
2023-02-18T14:37:30.172Z,31.29
2023-02-18T14:38:30.232Z,31.04
2023-02-18T14:39:30.285Z,29.70
2023-02-18T14:40:30.352Z,30.90
2023-02-18T14:41:30.403Z,32.20
2023-02-18T14:42:30.464Z,31.12
2023-02-18T14:43:30.527Z,27.57
2023-02-18T14:44:30.585Z,29.36
2023-02-18T14:45:30.657Z,31.07
2023-02-18T14:46:30.798Z,30.36
2023-02-18T14:47:30.749Z,31.43
2023-02-18T14:48:30.813Z,30.87
2023-02-18T14:49:30.870Z,30.75
2023-02-18T14:50:30.918Z,31.41
2023-02-18T14:51:30.990Z,31.45
2023-02-18T14:52:31.076Z,29.52
2023-02-18T14:53:31.106Z,30.42
2023-02-18T14:54:31.158Z,31.35
2023-02-18T14:55:31.216Z,30.26
2023-02-18T14:56:31.281Z,30.13
2023-02-18T14:57:31.324Z,30.82
2023-02-18T14:58:31.390Z,32.95
2023-02-18T14:59:31.456Z,32.34
2023-02-18T15:00:31.518Z,29.88
2023-02-18T15:01:31.635Z,31.12
2023-02-18T15:02:31.647Z,30.79
2023-02-18T15:03:31.772Z,31.62
2023-02-18T15:04:31.764Z,31.91
2023-02-18T15:05:31.836Z,34.88
2023-02-18T15:06:31.905Z,34.64
2023-02-18T15:07:31.946Z,34.11
2023-02-18T15:08:32.011Z,34.67
2023-02-18T15:09:32.083Z,34.85
2023-02-18T15:10:32.131Z,34.34
2023-02-18T15:11:32.188Z,35.66
2023-02-18T15:12:32.233Z,36.10
2023-02-18T15:13:32.292Z,36.33
2023-02-18T15:14:32.356Z,33.00
2023-02-18T15:15:32.412Z,36.02
2023-02-18T15:16:32.474Z,34.64
2023-02-18T15:17:32.522Z,33.50
2023-02-18T15:18:32.573Z,35.97
2023-02-18T15:19:32.628Z,33.96
2023-02-18T15:20:32.688Z,36.47
2023-02-18T15:21:32.743Z,36.42
2023-02-18T15:22:32.814Z,38.78
2023-02-18T15:23:32.868Z,36.85
2023-02-18T15:24:32.919Z,34.48
2023-02-18T15:25:32.968Z,39.33
2023-02-18T15:26:33.026Z,35.00
2023-02-18T15:27:33.097Z,36.54
2023-02-18T15:28:33.150Z,35.74
2023-02-18T15:29:33.277Z,38.93
2023-02-18T15:30:33.291Z,39.73
2023-02-18T16:39:38.158Z,41.16
2023-02-18T16:45:37.857Z,38.95
2023-02-18T16:46:37.874Z,41.07
2023-02-18T16:47:37.931Z,38.63
2023-02-18T16:48:37.997Z,42.16
2023-02-18T16:49:38.056Z,38.71
2023-02-18T16:50:38.131Z,37.81
2023-02-18T16:51:38.199Z,40.93
2023-02-18T16:52:38.255Z,41.70
2023-02-18T16:53:38.324Z,40.58
2023-02-18T16:54:38.390Z,41.82
2023-02-18T16:55:38.440Z,37.68
2023-02-18T16:56:38.505Z,42.47
2023-02-18T16:57:38.573Z,40.18
2023-02-18T16:58:38.641Z,39.67
2023-02-18T16:59:38.701Z,41.53
2023-02-18T17:00:38.802Z,39.74
2023-02-18T17:01:38.853Z,38.50
2023-02-18T17:02:38.888Z,40.97
2023-02-18T17:03:38.953Z,41.55
2023-02-18T17:04:39.020Z,42.15
2023-02-18T17:05:39.113Z,42.32
2023-02-18T17:06:39.135Z,40.42
2023-02-18T17:07:39.202Z,38.87
2023-02-18T17:08:39.693Z,43.62
2023-02-18T17:09:39.318Z,40.60
2023-02-18T17:10:39.387Z,42.13
2023-02-18T17:11:39.466Z,43.19
2023-02-18T17:12:39.516Z,38.53
2023-02-18T17:13:39.579Z,38.86
2023-02-18T17:14:39.649Z,38.31
2023-02-18T17:15:39.708Z,37.73
2023-02-18T17:16:39.806Z,42.41
2023-02-18T17:17:40.177Z,40.57
2023-02-18T17:18:39.896Z,38.99
2023-02-18T17:19:39.961Z,37.96
2023-02-18T17:20:40.024Z,39.70
2023-02-18T17:21:40.090Z,42.92
2023-02-18T17:22:40.152Z,39.20
2023-02-18T17:23:40.232Z,41.15
2023-02-18T17:25:40.342Z,40.72
2023-02-18T17:26:40.445Z,39.94
2023-02-18T17:45:41.202Z,39.00
2023-02-18T17:46:41.186Z,38.23
2023-02-18T17:47:41.203Z,39.39
2023-02-18T17:48:41.278Z,39.23
2023-02-18T17:49:41.328Z,44.84
2023-02-18T17:50:41.386Z,43.44
2023-02-18T17:51:41.461Z,38.78
2023-02-18T17:52:41.516Z,43.18
2023-02-18T17:53:41.575Z,38.55
2023-02-18T17:54:41.639Z,40.55
2023-02-18T17:55:41.690Z,41.39
2023-02-18T17:56:41.747Z,40.53
2023-02-18T17:57:41.807Z,44.10
2023-02-18T17:58:41.869Z,40.58
2023-02-18T17:59:41.943Z,39.05
2023-02-18T18:00:42.005Z,41.35
2023-02-18T18:01:42.057Z,38.81
2023-02-18T18:02:42.115Z,40.73
2023-02-18T18:05:42.308Z,41.19
2023-02-18T18:06:42.369Z,38.17
2023-02-18T18:07:42.444Z,43.16
2023-02-18T18:08:42.495Z,38.72
2023-02-18T18:09:42.560Z,40.74
2023-02-18T18:10:42.633Z,38.44
2023-02-18T18:11:42.706Z,39.04
2023-02-18T18:12:42.746Z,37.63
2023-02-18T18:13:42.818Z,38.58
2023-02-18T18:14:42.882Z,39.88
2023-02-18T18:15:42.935Z,39.29
2023-02-18T18:16:43.037Z,40.85
2023-02-18T18:17:43.073Z,38.22
2023-02-18T18:18:43.134Z,38.97
2023-02-18T18:19:43.284Z,42.10
2023-02-18T18:20:43.267Z,39.56
2023-02-18T18:21:43.323Z,38.91
2023-02-18T18:22:43.433Z,40.66
2023-02-18T18:23:43.446Z,38.60
2023-02-18T18:24:43.512Z,38.18
2023-02-18T18:25:43.564Z,38.89
2023-02-18T18:26:43.653Z,37.96
2023-02-18T18:27:43.758Z,37.98
2023-02-18T18:28:43.764Z,37.38
2023-02-18T18:29:43.836Z,41.27
2023-02-18T18:30:43.892Z,38.49
2023-02-18T18:31:43.987Z,37.40
2023-02-18T18:32:44.209Z,39.17
2023-02-18T18:33:44.068Z,36.51
2023-02-18T18:34:44.139Z,42.27
2023-02-18T18:35:44.188Z,38.52
2023-02-18T18:36:44.317Z,38.14
2023-02-18T18:37:44.321Z,40.06
2023-02-18T18:38:44.382Z,37.09
2023-02-18T18:39:44.430Z,39.23
2023-02-18T18:40:44.513Z,41.89
2023-02-18T18:41:44.558Z,39.00
2023-02-18T18:42:44.628Z,40.07
2023-02-18T18:43:44.710Z,38.97
2023-02-18T18:44:44.743Z,40.80
2023-02-18T18:45:44.911Z,40.06
2023-02-18T18:46:44.860Z,38.55
2023-02-18T18:47:44.919Z,38.50
2023-02-18T18:48:44.996Z,36.31
2023-02-18T18:49:45.044Z,36.63
2023-02-18T18:50:45.108Z,38.95
2023-02-18T18:51:45.172Z,38.97
2023-02-18T18:52:45.218Z,40.88
2023-02-18T18:53:45.294Z,37.66
2023-02-18T18:54:45.339Z,39.72
2023-02-18T18:55:45.415Z,42.71
2023-02-18T19:35:47.831Z,35.56
2023-02-18T19:36:47.904Z,33.76
2023-02-18T19:37:47.959Z,39.60
2023-02-18T19:38:48.015Z,34.49
2023-02-18T19:39:48.074Z,36.17
2023-02-18T19:40:48.218Z,36.73
2023-02-18T19:41:48.195Z,36.54
2023-02-18T19:42:48.267Z,36.80
2023-02-18T19:43:48.375Z,38.03
2023-02-18T19:44:48.372Z,35.89
2023-02-18T19:45:48.435Z,36.71
2023-02-18T19:46:48.494Z,34.23
2023-02-18T19:47:48.543Z,37.02
2023-02-18T19:48:48.643Z,34.21
2023-02-18T19:49:48.677Z,35.69
2023-02-18T19:50:49.228Z,33.25
2023-02-18T19:51:48.784Z,38.08
2023-02-18T19:52:48.836Z,39.15
2023-02-18T19:53:48.920Z,33.33
2023-02-18T19:54:48.955Z,33.86
2023-02-18T19:55:49.065Z,36.21
2023-02-18T19:56:49.066Z,34.94
2023-02-18T19:57:49.124Z,35.49
2023-02-18T19:58:49.194Z,32.70
2023-02-18T19:59:49.246Z,34.65
2023-02-18T20:00:49.371Z,34.51
2023-02-18T20:01:49.424Z,34.37
2023-02-18T20:02:49.476Z,36.32
2023-02-18T20:03:49.527Z,36.32
2023-02-18T20:04:49.564Z,36.91
2023-02-18T20:05:49.608Z,37.15
2023-02-18T20:06:49.676Z,36.99
2023-02-18T20:07:49.735Z,36.72
2023-02-18T20:08:49.807Z,35.39
2023-02-18T20:09:49.840Z,34.89
2023-02-18T20:10:49.907Z,37.64
2023-02-18T20:11:49.969Z,35.82
2023-02-18T20:12:50.021Z,35.05
2023-02-18T20:13:50.103Z,34.72
2023-02-18T20:14:50.151Z,33.63
2023-02-18T20:15:50.310Z,35.48
2023-02-18T20:16:50.286Z,33.13
2023-02-18T20:17:50.401Z,37.88
2023-02-18T20:18:50.399Z,35.98
2023-02-18T20:19:50.460Z,33.58
2023-02-18T20:20:51.259Z,34.18
2023-02-18T20:21:50.588Z,34.78
2023-02-18T20:22:50.638Z,35.26
2023-02-18T20:23:50.702Z,34.78
2023-02-18T20:24:50.760Z,35.44
2023-02-18T20:25:50.844Z,34.45
2023-02-18T20:26:50.896Z,34.14
2023-02-18T20:28:00.336Z,31.81
2023-02-18T20:28:51.936Z,31.99
2023-02-18T20:29:50.954Z,32.52
2023-02-18T20:30:51.014Z,33.19
2023-02-18T20:31:51.099Z,33.72
2023-02-18T20:32:50.979Z,35.21
2023-02-18T20:33:50.984Z,37.78
2023-02-18T20:34:51.001Z,33.79
2023-02-18T20:35:51.002Z,35.27
2023-02-18T20:36:51.020Z,34.39
2023-02-18T20:37:51.023Z,34.75
2023-02-18T20:38:51.028Z,32.65
2023-02-18T20:39:51.165Z,34.38
2023-02-18T20:40:51.143Z,36.41
2023-02-18T20:41:51.200Z,35.16
2023-02-18T20:42:51.271Z,34.21
2023-02-18T20:43:51.332Z,34.49
2023-02-18T20:44:51.365Z,35.95
2023-02-18T20:45:51.422Z,32.44
2023-02-18T20:46:51.481Z,33.55
2023-02-18T20:47:51.552Z,33.50
2023-02-18T20:48:51.666Z,35.19
2023-02-18T20:49:52.247Z,36.06
2023-02-18T20:50:51.732Z,34.34
2023-02-18T20:51:51.789Z,32.09
2023-02-18T20:52:51.854Z,33.06
2023-02-18T20:53:51.919Z,35.95
2023-02-18T20:54:51.984Z,33.91
2023-02-18T20:55:52.035Z,34.84
2023-02-18T20:56:52.100Z,35.61
2023-02-18T20:57:52.170Z,31.90
2023-02-18T20:58:52.220Z,35.32
2023-02-18T20:59:52.359Z,35.05
2023-02-18T21:00:52.347Z,33.00
2023-02-18T21:01:52.426Z,34.78
2023-02-18T21:02:52.516Z,37.20
2023-02-18T21:03:52.521Z,33.39
2023-02-18T21:04:52.579Z,35.12
2023-02-18T21:05:52.653Z,34.59
2023-02-18T21:06:52.704Z,31.55
2023-02-18T21:07:52.766Z,35.11
2023-02-18T21:08:52.895Z,33.81
2023-02-18T21:09:52.881Z,34.29
2023-02-18T21:10:52.952Z,36.07
2023-02-18T21:11:53.002Z,34.72
2023-02-18T21:12:53.756Z,34.43
2023-02-18T21:13:53.161Z,36.88
2023-02-18T21:14:53.185Z,33.47
2023-02-18T21:15:53.261Z,35.82
2023-02-18T21:16:53.312Z,35.71
2023-02-18T21:17:53.355Z,34.96
2023-02-18T21:18:53.413Z,30.37
2023-02-18T21:19:53.467Z,29.55
2023-02-18T21:20:53.523Z,33.41
2023-02-18T21:21:53.577Z,33.35
2023-02-18T21:22:55.433Z,33.66
2023-02-18T21:23:53.853Z,32.47
2023-02-18T21:24:53.898Z,36.39
2023-02-18T21:25:53.951Z,33.00
2023-02-18T21:26:54.009Z,37.04
2023-02-18T21:27:54.097Z,31.06
2023-02-18T21:28:54.119Z,33.19
2023-02-18T21:29:54.179Z,34.06
2023-02-18T21:30:54.225Z,33.91
2023-02-18T21:31:54.379Z,32.47
2023-02-18T21:32:54.344Z,31.94
2023-02-18T21:33:54.404Z,32.74
2023-02-18T21:34:54.432Z,31.14
2023-02-18T21:35:54.500Z,32.03
2023-02-18T21:36:54.544Z,32.95
2023-02-18T21:37:54.599Z,34.98
2023-02-18T21:38:54.675Z,34.63
2023-02-18T21:39:54.710Z,30.10
2023-02-18T21:40:54.766Z,30.80
2023-02-18T21:41:54.828Z,30.38
2023-02-18T21:42:54.956Z,33.40
2023-02-18T21:43:54.941Z,33.23
2023-02-18T21:44:54.991Z,32.48
2023-02-18T21:45:55.056Z,36.13
2023-02-18T21:46:55.179Z,30.43
2023-02-18T21:47:55.170Z,32.07
2023-02-18T21:48:55.218Z,32.79
2023-02-18T21:49:55.272Z,33.24
2023-02-18T21:50:55.311Z,32.81
2023-02-18T21:51:55.368Z,31.69
2023-02-18T21:52:55.412Z,32.04
2023-02-18T21:53:55.465Z,31.87
2023-02-18T21:54:55.525Z,32.06
2023-02-18T21:56:03.701Z,33.32
2023-02-18T21:57:55.589Z,33.43
2023-02-18T21:58:56.274Z,33.68
2023-02-18T21:59:55.586Z,33.53
2023-02-18T22:00:55.622Z,32.51
2023-02-18T22:01:55.738Z,33.03
2023-02-18T22:02:55.601Z,31.29
2023-02-18T22:03:55.659Z,32.34
2023-02-18T22:04:55.619Z,30.61
2023-02-18T22:05:55.605Z,29.26
2023-02-18T22:06:55.626Z,33.64
2023-02-18T22:07:55.686Z,32.60
2023-02-18T22:08:55.739Z,32.71
2023-02-18T22:09:55.795Z,32.91
2023-02-18T22:10:55.848Z,31.29
2023-02-18T22:11:55.904Z,33.04
2023-02-18T22:12:55.971Z,30.94
2023-02-18T22:46:58.297Z,29.00
2023-02-18T22:47:57.856Z,31.05
2023-02-18T22:48:57.904Z,31.17
2023-02-18T22:49:57.966Z,28.25
2023-02-18T22:50:58.016Z,30.09
2023-02-18T22:51:58.061Z,29.76
2023-02-18T22:52:58.106Z,28.55
2023-02-18T22:53:58.164Z,27.70
2023-02-18T22:54:58.213Z,29.64
2023-02-18T22:55:58.265Z,32.35
2023-02-18T22:56:58.321Z,28.57
2023-02-18T22:57:58.370Z,29.91
2023-02-18T22:58:58.447Z,28.44
2023-02-18T22:59:58.485Z,30.13
2023-02-18T23:00:58.599Z,31.00
2023-02-18T23:01:58.595Z,30.12
2023-02-18T23:02:58.655Z,29.83
2023-02-18T23:03:58.785Z,32.29
2023-02-18T23:04:58.758Z,30.06
2023-02-18T23:05:58.801Z,27.77
2023-02-18T23:06:58.874Z,29.44
2023-02-18T23:07:58.911Z,26.16
2023-02-18T23:08:58.959Z,29.68
2023-02-18T23:09:59.025Z,28.19
2023-02-18T23:10:59.080Z,29.68
2023-02-18T23:11:59.166Z,29.47
2023-02-18T23:12:59.263Z,30.47
2023-02-18T23:13:59.241Z,26.81
2023-02-18T23:14:59.300Z,28.79
2023-02-18T23:15:59.345Z,27.24
2023-02-18T23:16:59.388Z,28.00
2023-02-18T23:17:59.443Z,26.24
2023-02-18T23:18:59.492Z,26.15
2023-02-18T23:19:59.562Z,31.39
2023-02-18T23:20:59.619Z,26.34
2023-02-18T23:21:59.657Z,26.04
2023-02-18T23:22:59.707Z,29.49
2023-02-18T23:23:59.763Z,28.93
2023-02-18T23:24:59.824Z,31.67
2023-02-18T23:25:59.853Z,28.16
2023-02-18T23:26:59.944Z,32.31
2023-02-18T23:27:59.954Z,28.98
2023-02-18T23:28:59.999Z,27.77
2023-02-18T23:30:00.204Z,30.31
2023-02-18T23:31:00.166Z,28.77
2023-02-18T23:32:00.231Z,31.40
2023-02-18T23:33:00.191Z,28.39
2023-02-18T23:34:00.810Z,28.62
2023-02-18T23:35:00.303Z,26.61
2023-02-18T23:36:00.328Z,28.53
2023-02-18T23:37:00.386Z,27.61
2023-02-18T23:38:00.446Z,28.94
2023-02-18T23:39:00.477Z,28.12
2023-02-18T23:40:00.614Z,28.78
2023-02-18T23:41:00.559Z,27.15
2023-02-18T23:42:00.599Z,30.36
2023-02-18T23:43:00.610Z,27.38
2023-02-18T23:44:01.311Z,28.12
2023-02-18T23:45:01.056Z,28.03
2023-02-18T23:46:00.734Z,27.77
2023-02-18T23:47:00.729Z,29.19
2023-02-18T23:48:00.764Z,28.29
2023-02-18T23:49:00.783Z,30.18
2023-02-18T23:50:00.804Z,31.24
2023-02-18T23:51:00.838Z,29.01
2023-02-18T23:52:00.855Z,28.46
2023-02-18T23:54:00.957Z,29.01
2023-02-18T23:55:00.957Z,30.24